createdAt,value
2017-09-21T00:00:37.917Z,30.60
2017-09-21T00:03:12.382Z,46.22
2017-09-21T00:05:47.111Z,31.77
2017-09-21T00:08:21.569Z,33.67
2017-09-21T00:10:56.076Z,31.00
2017-09-21T00:13:31.342Z,32.03
2017-09-21T00:16:05.714Z,34.28
2017-09-21T00:18:40.169Z,31.48
2017-09-21T00:21:14.620Z,34.55
2017-09-21T00:23:49.142Z,32.03
2017-09-21T00:26:23.693Z,31.20
2017-09-21T00:28:58.147Z,30.02
2017-09-21T00:31:32.491Z,34.65
2017-09-21T00:34:06.993Z,30.35
2017-09-21T00:36:41.355Z,33.33
2017-09-21T00:39:15.835Z,32.40
2017-09-21T00:41:50.613Z,35.42
2017-09-21T00:44:25.124Z,32.55
2017-09-21T00:47:00.379Z,38.88
2017-09-21T00:49:35.481Z,32.15
2017-09-21T00:52:10.227Z,33.83
2017-09-21T00:54:44.767Z,34.70
2017-09-21T00:57:19.987Z,35.47
2017-09-21T00:59:54.477Z,32.88
2017-09-21T01:02:28.856Z,30.85
2017-09-21T01:05:03.456Z,36.35
2017-09-21T01:07:37.959Z,35.78
2017-09-21T01:10:12.363Z,35.08
2017-09-21T01:12:47.222Z,34.58
2017-09-21T01:15:21.717Z,33.22
2017-09-21T01:17:56.567Z,31.33
2017-09-21T01:20:30.913Z,33.88
2017-09-21T01:23:05.418Z,34.08
2017-09-21T01:25:39.913Z,35.70
2017-09-21T01:28:14.616Z,33.00
2017-09-21T01:30:49.088Z,36.63
2017-09-21T01:33:23.433Z,44.25
2017-09-21T01:35:57.973Z,33.28
2017-09-21T01:38:33.176Z,37.17
2017-09-21T01:41:07.677Z,38.42
2017-09-21T01:43:42.848Z,33.50
2017-09-21T01:46:17.275Z,36.97
2017-09-21T01:48:51.758Z,33.08
2017-09-21T01:51:26.280Z,34.50
2017-09-21T01:54:01.512Z,34.15
2017-09-21T01:56:36.103Z,36.70
2017-09-21T01:59:10.555Z,39.13
2017-09-21T02:01:45.032Z,38.55
2017-09-21T02:04:19.501Z,38.55
2017-09-21T02:06:53.816Z,36.50
2017-09-21T02:09:28.107Z,38.72
2017-09-21T02:12:02.443Z,41.90
2017-09-21T02:14:36.929Z,39.92
2017-09-21T02:17:11.375Z,39.20
2017-09-21T02:19:45.675Z,46.35
2017-09-21T02:22:20.033Z,36.35
2017-09-21T02:24:54.497Z,36.80
2017-09-21T02:27:29.910Z,37.15
2017-09-21T02:30:04.524Z,35.83
2017-09-21T02:32:38.938Z,32.78
2017-09-21T02:35:13.532Z,38.60
2017-09-21T02:37:47.843Z,37.08
2017-09-21T02:40:22.368Z,33.20
2017-09-21T02:42:56.885Z,35.22
2017-09-21T02:45:32.350Z,36.97
2017-09-21T02:48:06.759Z,33.20
2017-09-21T02:50:41.961Z,38.38
2017-09-21T02:53:17.110Z,34.20
2017-09-21T02:55:51.469Z,39.00
2017-09-21T02:58:25.845Z,37.72
2017-09-21T03:01:01.192Z,40.05
2017-09-21T03:03:35.611Z,41.63
2017-09-21T03:06:09.980Z,38.60
2017-09-21T03:08:44.350Z,41.08
2017-09-21T03:11:18.836Z,44.03
2017-09-21T03:13:53.312Z,40.45
2017-09-21T03:16:28.001Z,36.85
2017-09-21T03:19:02.384Z,39.55
2017-09-21T03:21:36.958Z,42.10
2017-09-21T03:24:11.408Z,36.55
2017-09-21T03:26:45.837Z,37.30
2017-09-21T03:29:20.300Z,37.38
2017-09-21T03:31:54.683Z,41.70
2017-09-21T03:34:29.195Z,40.78
2017-09-21T03:37:03.864Z,36.67
2017-09-21T03:39:38.354Z,40.47
2017-09-21T03:42:12.839Z,47.78
2017-09-21T03:44:48.076Z,42.83
2017-09-21T03:47:22.629Z,41.35
2017-09-21T03:49:57.050Z,40.45
2017-09-21T03:52:31.527Z,42.55
2017-09-21T03:55:05.929Z,42.17
2017-09-21T03:57:40.522Z,45.72
2017-09-21T04:00:14.996Z,44.03
2017-09-21T04:02:49.587Z,40.92
2017-09-21T04:05:24.814Z,43.42
2017-09-21T04:07:59.407Z,42.83
2017-09-21T04:10:33.913Z,38.30
2017-09-21T04:13:08.443Z,45.63
2017-09-21T04:15:43.462Z,45.17
2017-09-21T04:18:17.766Z,48.03
2017-09-21T04:20:52.301Z,46.63
2017-09-21T04:23:26.964Z,47.80
2017-09-21T04:26:01.361Z,40.85
2017-09-21T04:28:36.512Z,44.60
2017-09-21T04:31:11.088Z,45.92
2017-09-21T04:33:46.294Z,41.35
2017-09-21T04:36:20.842Z,43.85
2017-09-21T04:38:55.320Z,42.17
2017-09-21T04:41:29.755Z,42.08
2017-09-21T04:44:04.179Z,47.33
2017-09-21T04:46:39.632Z,45.75
2017-09-21T04:49:14.124Z,49.03
2017-09-21T04:51:48.616Z,51.10
2017-09-21T04:54:23.249Z,56.90
2017-09-21T04:56:57.551Z,51.40
2017-09-21T04:59:31.975Z,53.38
2017-09-21T05:02:06.490Z,51.00
2017-09-21T05:04:41.552Z,47.67
2017-09-21T05:07:16.032Z,48.85
2017-09-21T05:09:51.776Z,53.87
2017-09-21T05:12:26.132Z,52.30
2017-09-21T05:15:01.380Z,57.15
2017-09-21T05:17:35.810Z,55.90
2017-09-21T05:20:10.286Z,56.40
2017-09-21T05:22:45.424Z,56.22
2017-09-21T05:25:19.981Z,59.40
2017-09-21T05:27:54.491Z,54.03
2017-09-21T05:30:28.931Z,48.75
2017-09-21T05:33:03.475Z,52.03
2017-09-21T05:35:38.152Z,56.30
2017-09-21T05:38:12.572Z,58.20
2017-09-21T05:40:47.746Z,60.60
2017-09-21T05:43:22.216Z,54.92
2017-09-21T05:45:56.722Z,56.40
2017-09-21T05:48:31.022Z,53.90
2017-09-21T05:51:05.415Z,54.90
2017-09-21T05:53:40.032Z,56.60
2017-09-21T05:56:14.532Z,56.35
2017-09-21T05:58:48.926Z,57.83
2017-09-21T06:01:23.528Z,51.70
2017-09-21T06:03:58.089Z,47.62
2017-09-21T06:06:32.622Z,49.63
2017-09-21T06:09:07.033Z,57.88
2017-09-21T06:11:41.533Z,55.80
2017-09-21T06:14:15.967Z,61.03
2017-09-21T06:16:50.533Z,56.58
2017-09-21T06:19:24.877Z,52.53
2017-09-21T06:22:00.244Z,59.38
2017-09-21T06:24:34.706Z,57.38
2017-09-21T06:27:09.171Z,56.72
2017-09-21T06:29:43.693Z,49.95
2017-09-21T06:32:18.139Z,51.95
2017-09-21T06:34:52.655Z,50.63
2017-09-21T06:37:27.294Z,58.22
2017-09-21T06:40:01.845Z,55.85
2017-09-21T06:42:36.443Z,57.28
2017-09-21T06:45:11.056Z,51.13
2017-09-21T06:47:45.583Z,58.78
2017-09-21T06:50:20.003Z,55.88
2017-09-21T06:52:54.440Z,57.85
2017-09-21T06:55:29.003Z,50.25
2017-09-21T06:58:03.509Z,53.13
2017-09-21T07:00:37.880Z,48.45
2017-09-21T07:03:12.208Z,50.53
2017-09-21T07:05:46.687Z,50.53
2017-09-21T07:08:21.953Z,53.45
2017-09-21T07:10:56.626Z,55.63
2017-09-21T07:13:31.124Z,55.00
2017-09-21T07:16:05.556Z,50.60
2017-09-21T07:18:39.919Z,46.13
2017-09-21T07:21:14.445Z,48.72
2017-09-21T07:23:48.992Z,52.38
2017-09-21T07:26:23.456Z,48.87
2017-09-21T07:28:57.914Z,48.38
2017-09-21T07:31:32.472Z,52.25
2017-09-21T07:34:06.931Z,50.33
2017-09-21T07:36:42.480Z,49.03
2017-09-21T07:39:16.808Z,48.83
2017-09-21T07:41:51.367Z,52.50
2017-09-21T07:44:25.872Z,45.88
2017-09-21T07:47:00.455Z,45.72
2017-09-21T07:49:36.750Z,48.50
2017-09-21T07:52:11.075Z,46.42
2017-09-21T07:54:46.291Z,46.45
2017-09-21T07:57:21.047Z,44.65
2017-09-21T07:59:55.442Z,44.13
2017-09-21T08:02:30.122Z,46.95
2017-09-21T08:05:04.619Z,41.83
2017-09-21T08:07:39.025Z,43.55
2017-09-21T08:10:13.524Z,42.72
2017-09-21T08:12:47.972Z,44.72
2017-09-21T08:15:22.469Z,45.42
2017-09-21T08:17:56.913Z,44.25
2017-09-21T08:20:31.373Z,44.90
2017-09-21T08:23:05.862Z,47.25
2017-09-21T08:25:40.380Z,43.45
2017-09-21T08:28:14.835Z,41.10
2017-09-21T08:30:49.186Z,42.83
2017-09-21T08:33:23.908Z,41.42
2017-09-21T08:35:58.386Z,43.22
2017-09-21T08:38:32.768Z,39.72
2017-09-21T08:41:07.913Z,38.35
2017-09-21T08:43:42.616Z,40.12
2017-09-21T08:46:16.965Z,39.65
2017-09-21T08:48:51.383Z,38.40
2017-09-21T08:51:26.508Z,36.17
2017-09-21T08:54:01.643Z,36.00
2017-09-21T08:56:36.068Z,36.53
2017-09-21T08:59:11.337Z,38.95
2017-09-21T09:01:45.683Z,37.10
2017-09-21T09:04:20.076Z,35.90
2017-09-21T09:06:54.569Z,34.55
2017-09-21T09:09:29.076Z,36.63
2017-09-21T09:12:03.621Z,34.45
2017-09-21T09:14:38.258Z,33.50
2017-09-21T09:17:12.721Z,32.88
2017-09-21T09:19:47.248Z,34.08
2017-09-21T09:22:21.572Z,34.03
2017-09-21T09:24:56.060Z,35.58
2017-09-21T09:27:30.645Z,35.22
2017-09-21T09:30:05.107Z,35.63
2017-09-21T09:32:39.619Z,32.90
2017-09-21T09:35:14.292Z,33.38
2017-09-21T09:37:49.428Z,34.30
2017-09-21T09:40:23.968Z,32.00
2017-09-21T09:42:59.192Z,34.15
2017-09-21T09:45:33.746Z,30.42
2017-09-21T09:48:08.982Z,35.08
2017-09-21T09:50:43.299Z,35.97
2017-09-21T09:53:17.832Z,34.45
2017-09-21T09:55:52.322Z,33.40
2017-09-21T09:58:27.717Z,30.80
2017-09-21T10:01:02.908Z,30.08
2017-09-21T10:03:37.500Z,28.67
2017-09-21T10:06:11.972Z,27.30
2017-09-21T10:08:47.144Z,29.53
2017-09-21T10:11:21.717Z,28.93
2017-09-21T10:13:56.432Z,29.07
2017-09-21T10:16:30.768Z,29.63
2017-09-21T10:19:05.257Z,29.90
2017-09-21T10:21:39.632Z,27.47
2017-09-21T10:24:14.291Z,30.27
2017-09-21T10:26:48.746Z,29.30
2017-09-21T10:29:23.431Z,30.70
2017-09-21T10:31:57.849Z,29.30
2017-09-21T10:34:32.380Z,29.80
2017-09-21T10:37:07.612Z,31.83
2017-09-21T10:39:42.129Z,33.00
2017-09-21T10:42:16.588Z,30.93
2017-09-21T10:44:50.955Z,30.97
2017-09-21T10:47:25.400Z,29.77
2017-09-21T10:49:59.884Z,28.50
2017-09-21T10:52:34.404Z,22.17
2017-09-21T10:55:08.760Z,25.97
2017-09-21T10:57:43.240Z,20.40
2017-09-21T11:00:17.751Z,21.77
2017-09-21T11:02:52.255Z,19.25
2017-09-21T11:05:26.647Z,22.80
2017-09-21T11:08:01.237Z,23.27
2017-09-21T11:10:35.793Z,28.35
2017-09-21T11:13:10.220Z,23.62
2017-09-21T11:15:44.594Z,22.50
2017-09-21T11:18:19.080Z,18.52
2017-09-21T11:20:53.519Z,23.58
2017-09-21T11:23:27.968Z,25.55
2017-09-21T11:26:02.480Z,27.23
2017-09-21T11:28:37.005Z,23.95
2017-09-21T11:31:11.621Z,21.80
2017-09-21T11:33:45.935Z,22.45
2017-09-21T11:36:20.385Z,22.13
2017-09-21T11:38:55.080Z,19.00
2017-09-21T11:41:29.539Z,14.85
2017-09-21T11:44:03.884Z,12.77
2017-09-21T11:46:39.093Z,14.52
2017-09-21T11:49:13.587Z,13.85
2017-09-21T11:51:48.103Z,10.85
2017-09-21T11:54:22.879Z,9.88
2017-09-21T11:56:57.343Z,11.83
2017-09-21T11:59:31.692Z,11.25
2017-09-21T12:02:07.063Z,13.38
2017-09-21T12:04:41.444Z,13.35
2017-09-21T12:07:15.751Z,14.75
2017-09-21T12:09:50.365Z,11.68
2017-09-21T12:12:24.804Z,10.82
2017-09-21T12:14:59.717Z,11.77
2017-09-21T12:17:34.187Z,11.30
2017-09-21T12:20:08.588Z,10.17
2017-09-21T12:22:43.951Z,11.23
2017-09-21T12:25:18.428Z,11.77
2017-09-21T12:27:52.768Z,8.93
2017-09-21T12:30:27.216Z,11.33
2017-09-21T12:33:01.686Z,13.20
2017-09-21T12:35:36.331Z,12.05
2017-09-21T12:38:11.576Z,12.73
2017-09-21T12:40:45.928Z,13.02
2017-09-21T12:43:20.244Z,12.60
2017-09-21T12:45:55.336Z,13.02
2017-09-21T12:48:29.705Z,11.07
2017-09-21T12:51:04.041Z,16.07
2017-09-21T12:53:38.413Z,12.57
2017-09-21T12:56:13.081Z,12.55
2017-09-21T12:58:47.454Z,13.10
2017-09-21T13:01:22.712Z,10.77
2017-09-21T13:03:57.254Z,8.45
2017-09-21T13:06:31.620Z,10.05
2017-09-21T13:09:07.379Z,8.73
2017-09-21T13:11:41.755Z,6.80
2017-09-21T13:14:16.084Z,5.17
2017-09-21T13:16:50.525Z,6.00
2017-09-21T13:19:24.907Z,5.30
2017-09-21T13:21:59.368Z,6.10
2017-09-21T13:24:33.714Z,5.30
2017-09-21T13:27:08.139Z,8.60
2017-09-21T13:29:42.620Z,5.70
2017-09-21T13:32:17.155Z,4.50
2017-09-21T13:34:51.776Z,3.43
2017-09-21T13:37:26.268Z,4.23
2017-09-21T13:40:00.692Z,3.70
2017-09-21T13:42:35.980Z,4.97
2017-09-21T13:45:10.295Z,6.23
2017-09-21T13:47:44.832Z,5.73
2017-09-21T13:50:19.413Z,4.97
2017-09-21T13:52:54.011Z,4.70
2017-09-21T13:55:28.337Z,4.57
2017-09-21T13:58:02.792Z,3.83
2017-09-21T14:00:37.252Z,5.17
2017-09-21T14:03:11.684Z,4.97
2017-09-21T14:05:46.336Z,4.40
2017-09-21T14:08:20.663Z,4.73
2017-09-21T14:10:55.101Z,7.03
2017-09-21T14:13:29.624Z,4.83
2017-09-21T14:16:04.152Z,4.07
2017-09-21T14:18:38.674Z,5.63
2017-09-21T14:21:13.117Z,5.70
2017-09-21T14:23:48.312Z,5.77
2017-09-21T14:26:22.837Z,5.03
2017-09-21T14:28:57.540Z,4.23
2017-09-21T14:31:32.072Z,4.87
2017-09-21T14:34:07.229Z,6.80
2017-09-21T14:36:41.545Z,4.83
2017-09-21T14:39:15.833Z,4.70
2017-09-21T14:41:50.215Z,5.30
2017-09-21T14:47:06.182Z,9.73
2017-09-21T14:49:40.557Z,8.87
2017-09-21T14:52:14.907Z,9.07
2017-09-21T14:54:49.449Z,10.27
2017-09-21T14:57:23.948Z,10.00
2017-09-21T14:59:58.257Z,9.93
2017-09-21T15:02:32.588Z,10.83
2017-09-21T15:05:07.065Z,9.70
2017-09-21T15:07:41.592Z,12.00
2017-09-21T15:10:16.040Z,9.93
2017-09-21T15:12:50.395Z,13.17
2017-09-21T15:15:24.795Z,14.40
2017-09-21T15:17:59.425Z,16.60
2017-09-21T15:20:33.889Z,16.47
2017-09-21T15:23:08.368Z,17.50
2017-09-21T15:25:43.462Z,16.70
2017-09-21T15:28:17.812Z,17.33
2017-09-21T15:30:52.268Z,19.17
2017-09-21T15:33:26.847Z,18.37
2017-09-21T15:36:01.179Z,16.57
2017-09-21T15:38:35.565Z,16.53
2017-09-21T15:41:09.852Z,18.33
2017-09-21T15:43:44.232Z,17.07
2017-09-21T15:46:18.572Z,16.27
2017-09-21T15:48:53.112Z,18.17
2017-09-21T15:51:27.636Z,17.55
2017-09-21T15:54:02.420Z,16.20
2017-09-21T15:56:36.928Z,15.38
2017-09-21T15:59:11.780Z,17.10
2017-09-21T16:01:46.161Z,14.85
2017-09-21T16:04:21.480Z,13.90
2017-09-21T16:06:55.926Z,15.00
2017-09-21T16:09:30.476Z,14.50
2017-09-21T16:12:04.952Z,14.77
2017-09-21T16:14:39.451Z,13.80
2017-09-21T16:17:13.931Z,14.48
2017-09-21T16:19:48.441Z,15.43
2017-09-21T16:22:22.876Z,13.80
2017-09-21T16:24:57.407Z,13.77
2017-09-21T16:27:31.865Z,13.02
2017-09-21T16:30:06.375Z,13.40
2017-09-21T16:32:41.004Z,14.82
2017-09-21T16:35:15.496Z,12.15
2017-09-21T16:37:50.008Z,12.98
2017-09-21T16:40:24.456Z,12.95
2017-09-21T16:42:58.933Z,14.05
2017-09-21T16:45:33.496Z,14.70
2017-09-21T16:48:08.011Z,16.60
2017-09-21T16:50:42.376Z,12.70
2017-09-21T16:53:16.985Z,13.82
2017-09-21T16:55:51.350Z,14.27
2017-09-21T16:58:26.102Z,15.40
2017-09-21T17:01:00.620Z,14.00
2017-09-21T17:03:35.365Z,14.07
2017-09-21T17:06:09.823Z,13.57
2017-09-21T17:08:44.463Z,15.15
2017-09-21T17:11:18.946Z,14.20
2017-09-21T17:13:53.449Z,15.07
2017-09-21T17:16:27.808Z,14.63
2017-09-21T17:19:02.675Z,15.75
2017-09-21T17:21:37.264Z,15.38
2017-09-21T17:24:11.795Z,20.40
2017-09-21T17:26:46.393Z,16.73
2017-09-21T17:29:20.962Z,15.48
2017-09-21T17:31:55.302Z,18.25
2017-09-21T17:34:29.792Z,15.70
2017-09-21T17:37:04.288Z,15.30
2017-09-21T17:39:38.895Z,14.55
2017-09-21T17:42:13.432Z,14.45
2017-09-21T17:44:47.817Z,15.68
2017-09-21T17:47:23.027Z,15.55
2017-09-21T17:49:57.685Z,15.30
2017-09-21T17:52:32.083Z,15.70
2017-09-21T17:55:06.584Z,15.73
2017-09-21T17:57:41.784Z,22.13
2017-09-21T18:00:16.152Z,13.98
2017-09-21T18:02:51.241Z,16.20
2017-09-21T18:05:25.568Z,15.68
2017-09-21T18:08:02.034Z,16.50
2017-09-21T18:10:36.508Z,15.73
2017-09-21T18:13:11.722Z,16.48
2017-09-21T18:15:48.765Z,14.40
2017-09-21T18:18:25.739Z,14.32
2017-09-21T18:21:00.369Z,15.95
2017-09-21T18:23:34.676Z,15.90
2017-09-21T18:26:09.329Z,18.75
2017-09-21T18:28:43.770Z,17.65
2017-09-21T18:31:18.238Z,16.65
2017-09-21T18:33:52.830Z,15.57
2017-09-21T18:36:27.279Z,20.50
2017-09-21T18:39:01.746Z,17.30
2017-09-21T18:41:36.248Z,19.08
2017-09-21T18:44:10.728Z,18.65
2017-09-21T18:46:45.366Z,17.77
2017-09-21T18:49:19.799Z,17.00
2017-09-21T18:51:54.341Z,18.87
2017-09-21T18:54:29.581Z,19.20
2017-09-21T18:57:04.114Z,18.90
2017-09-21T18:59:39.521Z,18.42
2017-09-21T19:02:14.133Z,17.23
2017-09-21T19:04:49.448Z,17.67
2017-09-21T19:07:24.461Z,22.35
2017-09-21T19:09:59.105Z,21.23
2017-09-21T19:12:35.855Z,23.52
2017-09-21T19:15:10.478Z,24.35
2017-09-21T19:17:45.345Z,25.15
2017-09-21T19:20:21.070Z,22.98
2017-09-21T19:22:55.496Z,23.00
2017-09-21T19:25:31.084Z,25.00
2017-09-21T19:28:06.206Z,23.90
2017-09-21T19:30:40.793Z,27.75
2017-09-21T19:33:15.301Z,25.98
2017-09-21T19:35:50.550Z,26.77
2017-09-21T19:38:25.846Z,26.65
2017-09-21T19:41:00.334Z,28.75
2017-09-21T19:43:34.900Z,26.58
2017-09-21T19:46:10.029Z,29.05
2017-09-21T19:48:44.330Z,28.25
2017-09-21T19:51:18.687Z,31.95
2017-09-21T19:53:53.182Z,31.75
2017-09-21T19:56:27.573Z,33.85
2017-09-21T19:59:02.014Z,33.42
2017-09-21T20:01:37.123Z,41.22
2017-09-21T20:04:11.778Z,32.63
2017-09-21T20:06:47.010Z,37.67
2017-09-21T20:09:22.524Z,33.42
2017-09-21T20:11:57.689Z,31.33
2017-09-21T20:14:32.183Z,32.45
2017-09-21T20:17:06.552Z,30.42
2017-09-21T20:19:41.020Z,30.73
2017-09-21T20:22:15.342Z,29.58
2017-09-21T20:24:49.660Z,32.22
2017-09-21T20:27:24.354Z,31.42
2017-09-21T20:29:58.768Z,31.87
2017-09-21T20:32:33.196Z,31.20
2017-09-21T20:35:07.727Z,31.75
2017-09-21T20:37:42.255Z,31.08
2017-09-21T20:40:16.790Z,31.98
2017-09-21T20:42:51.162Z,29.45
2017-09-21T20:45:25.670Z,30.70
2017-09-21T20:48:00.140Z,30.62
2017-09-21T20:50:34.491Z,29.30
2017-09-21T20:53:08.889Z,27.42
2017-09-21T20:55:43.380Z,26.70
2017-09-21T20:58:17.927Z,30.02
2017-09-21T21:00:52.381Z,27.75
2017-09-21T21:03:27.127Z,29.42
2017-09-21T21:06:01.450Z,30.12
2017-09-21T21:08:35.765Z,29.95
2017-09-21T21:11:10.239Z,28.87
2017-09-21T21:13:44.963Z,29.12
2017-09-21T21:16:19.413Z,29.10
2017-09-21T21:18:54.596Z,28.80
2017-09-21T21:21:29.913Z,30.48
2017-09-21T21:24:04.505Z,31.30
2017-09-21T21:26:38.840Z,28.95
2017-09-21T21:29:13.340Z,30.55
2017-09-21T21:31:47.829Z,28.80
2017-09-21T21:34:22.372Z,29.10
2017-09-21T21:36:56.731Z,29.48
2017-09-21T21:39:31.455Z,30.20
2017-09-21T21:42:05.788Z,30.58
2017-09-21T21:44:40.357Z,30.12
2017-09-21T21:47:14.836Z,29.17
2017-09-21T21:49:49.352Z,29.75
2017-09-21T21:52:23.764Z,28.80
2017-09-21T21:54:58.103Z,29.17
2017-09-21T21:57:32.484Z,28.98
2017-09-21T22:00:06.789Z,28.40
2017-09-21T22:02:41.253Z,27.52
2017-09-21T22:05:16.463Z,25.98
2017-09-21T22:07:51.735Z,27.17
2017-09-21T22:10:26.952Z,27.95
2017-09-21T22:13:01.309Z,26.17
2017-09-21T22:15:35.788Z,25.73
2017-09-21T22:18:10.249Z,28.27
2017-09-21T22:20:44.638Z,27.48
2017-09-21T22:23:19.093Z,27.50
2017-09-21T22:25:53.996Z,28.00
2017-09-21T22:28:29.120Z,28.27
2017-09-21T22:31:03.657Z,29.15
2017-09-21T22:33:38.085Z,27.85
2017-09-21T22:36:13.345Z,26.37
2017-09-21T22:38:48.526Z,30.10
2017-09-21T22:41:23.365Z,34.17
2017-09-21T22:43:58.986Z,29.37
2017-09-21T22:46:33.693Z,27.83
2017-09-21T22:49:08.152Z,26.40
2017-09-21T22:51:43.460Z,27.25
2017-09-21T22:54:17.825Z,28.77
2017-09-21T22:56:52.255Z,27.90
2017-09-21T22:59:26.803Z,26.87
2017-09-21T23:02:01.337Z,29.58
2017-09-21T23:04:35.944Z,27.42
2017-09-21T23:07:10.375Z,27.65
2017-09-21T23:09:44.757Z,29.48
2017-09-21T23:12:19.234Z,27.87
2017-09-21T23:14:53.784Z,29.10
2017-09-21T23:17:28.208Z,26.90
2017-09-21T23:20:02.715Z,26.33
2017-09-21T23:22:37.235Z,27.67
2017-09-21T23:25:11.665Z,26.10
2017-09-21T23:27:46.083Z,27.75
2017-09-21T23:30:20.497Z,27.45
2017-09-21T23:32:56.044Z,26.30
2017-09-21T23:35:30.539Z,26.60
2017-09-21T23:38:04.995Z,28.83
2017-09-21T23:40:39.532Z,28.02
2017-09-21T23:43:14.078Z,29.10
2017-09-21T23:45:49.273Z,27.67
2017-09-21T23:48:24.577Z,27.70
2017-09-21T23:50:59.069Z,28.05
2017-09-21T23:53:33.632Z,32.53
2017-09-21T23:56:08.864Z,28.08
2017-09-21T23:58:43.404Z,28.38
